CheckWX is a tool to help pilots better visualize weather data.  It is not intended as a substitute for an official pre-flight weather briefing.

15:03:37 UTC

KCMX METAR
Houghton County Memorial Airport
Hancock, Michigan, USA
Current

11 mins ago

KCMX 231453Z AUTO 29011KT 3SM BR BKN007 BKN015 OVC035 12/10 A2977 RMK AO2 RAB29E48 SLP085 P0001 60001 T01170100 50014
Observed
May-23 @ 14:53 UTC
Wind
  • 290° at 11 KTS
Visibility
3 SM
Flight Rules
IFR
Conditions
Mist
Cloud Levels
  • Broken at 700' AGL
  • Broken at 1,500' AGL
  • Overcast at 3,500' AGL
Temperature
12°C / 54°F
Dewpoint
10°C / 50°F
Humidity
88%
Altimeter
29.77" Hg
Pressure
1008.12 hPa
Current Rain
0.01"
Previous

29 mins ago

KCMX 231435Z AUTO 29011KT 2SM -RA BR SCT008 OVC017 11/09 A2977 RMK AO2 RAB29 P0000 T01110094
Observed
May-23 @ 14:35 UTC
Wind
  • 290° at 11 KTS
Visibility
2 SM
Flight Rules
IFR
Conditions
Light Rain, Mist
Cloud Levels
  • Scattered at 800' AGL
  • Overcast at 1,700' AGL
Temperature
11°C / 52°F
Dewpoint
C / 48°F
Humidity
88%
Altimeter
29.77" Hg
Pressure
1008.12 hPa
Current Rain
0.01"
Previous

1 hour ago

KCMX 231353Z AUTO 27012KT 10SM OVC020 13/08 A2974 RMK AO2 SLP076 T01280078
Observed
May-23 @ 13:53 UTC
Wind
  • 270° at 12 KTS
Visibility
10 SM
Flight Rules
MVFR
Cloud Levels
  • Overcast at 2,000' AGL
Temperature
13°C / 55°F
Dewpoint
C / 46°F
Humidity
72%
Altimeter
29.74" Hg
Pressure
1007.12 hPa